createdAt,value
2023-09-02T01:32:06.835Z,15.81
2023-09-02T01:33:36.023Z,15.90
2023-09-02T01:39:47.364Z,15.77
2023-09-02T01:42:42.466Z,15.75
2023-09-02T01:48:52.070Z,15.72
2023-09-02T01:52:57.421Z,15.70
2023-09-02T01:59:09.420Z,15.69
2023-09-02T02:08:47.370Z,15.71
2023-09-02T02:11:16.331Z,15.74
2023-09-02T02:14:07.120Z,15.71
2023-09-02T02:16:55.323Z,15.77
2023-09-02T02:22:56.384Z,15.81
2023-09-02T02:26:42.004Z,15.81
2023-09-02T02:29:39.474Z,15.82
2023-09-02T02:38:17.772Z,15.87
2023-09-02T02:53:49.887Z,15.91
2023-09-02T02:57:11.861Z,15.92
2023-09-02T02:59:04.648Z,15.92
2023-09-02T03:02:06.290Z,15.93
2023-09-02T03:11:19.139Z,15.95
2023-09-02T03:18:34.701Z,15.96
2023-09-02T03:24:14.033Z,15.98
2023-09-02T03:27:05.559Z,15.98
2023-09-02T03:29:26.375Z,15.98
2023-09-02T03:31:29.800Z,15.97
2023-09-02T03:45:06.822Z,15.94
2023-09-02T04:05:55.043Z,15.95
2023-09-02T06:08:15.582Z,16.17
2023-09-02T06:10:42.392Z,16.19
2023-09-02T06:13:56.809Z,16.16
2023-09-02T06:40:16.451Z,16.24
2023-09-02T06:42:17.261Z,16.28
2023-09-02T06:56:15.755Z,16.27
2023-09-02T07:00:03.616Z,16.24
2023-09-02T07:02:55.655Z,16.22
2023-09-02T07:05:10.793Z,16.30
2023-09-02T07:14:01.950Z,16.30
2023-09-02T07:16:26.257Z,16.36
2023-09-02T07:18:53.016Z,16.41
2023-09-02T07:21:23.924Z,16.44
2023-09-02T07:23:56.361Z,16.45
2023-09-02T07:26:24.895Z,16.51
2023-09-02T07:28:55.996Z,16.56
2023-09-02T07:31:22.762Z,16.64
2023-09-02T07:33:49.468Z,16.72
2023-09-02T07:36:18.574Z,16.76
2023-09-02T07:38:47.673Z,16.80
2023-09-02T07:41:17.781Z,16.84
2023-09-02T07:43:47.787Z,16.87
2023-09-02T07:46:17.422Z,16.96
2023-09-02T07:49:09.679Z,17.07
2023-09-02T07:51:36.549Z,17.08
2023-09-02T08:16:44.692Z,17.15
2023-09-02T08:23:14.032Z,17.30
2023-09-02T08:26:25.103Z,17.28
2023-09-02T08:33:00.307Z,17.26
2023-09-02T08:35:26.983Z,17.25
2023-09-02T08:38:11.310Z,17.26
2023-09-02T08:40:44.798Z,17.32
2023-09-02T08:44:27.129Z,17.40
2023-09-02T08:50:56.029Z,17.47
2023-09-02T09:01:24.684Z,17.63
2023-09-02T09:11:57.846Z,17.63
2023-09-02T09:14:40.875Z,17.67
2023-09-02T09:44:33.053Z,17.84
2023-09-02T10:02:23.335Z,17.98
2023-09-02T10:05:29.145Z,18.01
2023-09-02T10:11:37.309Z,18.10
2023-09-02T10:14:32.548Z,18.11
2023-09-02T10:20:25.014Z,18.09
2023-09-02T10:22:57.175Z,18.14
2023-09-02T10:25:28.705Z,18.18
2023-09-02T10:28:29.316Z,18.24
2023-09-02T10:30:59.219Z,18.31
2023-09-02T10:34:07.877Z,18.38
2023-09-02T10:36:40.169Z,18.46
2023-09-02T10:39:12.036Z,18.52
2023-09-02T10:41:39.693Z,18.56
2023-09-02T10:44:10.106Z,18.56
2023-09-02T10:46:37.098Z,18.55
2023-09-02T10:49:05.313Z,18.54
2023-09-02T10:51:35.850Z,18.54
2023-09-02T10:54:03.448Z,18.57
2023-09-02T10:56:48.554Z,18.60
2023-09-02T10:59:53.858Z,18.65
2023-09-02T11:06:31.897Z,18.81
2023-09-02T11:09:22.593Z,18.85
2023-09-02T11:12:37.674Z,19.01
2023-09-02T11:15:40.262Z,19.22
2023-09-02T11:19:07.926Z,19.24
2023-09-02T11:44:08.805Z,19.51
2023-09-02T11:53:19.113Z,19.56
2023-09-02T11:55:45.891Z,19.58
2023-09-02T12:01:30.087Z,19.74
2023-09-02T12:03:58.476Z,19.71
2023-09-02T12:06:30.004Z,19.70
2023-09-02T12:08:57.599Z,19.76
2023-09-02T12:11:24.363Z,19.83
2023-09-02T12:13:54.961Z,19.89
2023-09-02T12:16:23.329Z,19.99
2023-09-02T12:18:52.642Z,20.01
2023-09-02T12:21:20.635Z,20.01
2023-09-02T12:23:51.378Z,20.02
2023-09-02T12:26:22.868Z,19.98
2023-09-02T12:28:50.422Z,19.94
2023-09-02T12:31:18.370Z,19.90
2023-09-02T12:33:57.480Z,19.86
2023-09-02T12:36:51.496Z,19.89
2023-09-02T12:43:56.448Z,19.92
2023-09-02T12:49:40.236Z,20.02
2023-09-02T12:53:39.924Z,20.08
2023-09-02T12:56:09.597Z,20.26
2023-09-02T12:59:05.837Z,20.31
2023-09-02T13:01:43.339Z,20.43
2023-09-02T13:10:55.922Z,20.68
2023-09-02T13:13:24.824Z,20.75
2023-09-02T13:15:52.173Z,20.65
2023-09-02T13:18:19.066Z,20.53
2023-09-02T13:21:00.931Z,20.64
2023-09-02T13:24:12.131Z,20.69
2023-09-02T13:31:01.322Z,21.10
2023-09-02T13:33:32.746Z,21.26
2023-09-02T13:36:00.400Z,21.32
2023-09-02T13:39:07.598Z,21.33
2023-09-02T13:42:28.557Z,21.27
2023-09-02T13:48:10.135Z,20.94
2023-09-02T13:50:37.526Z,20.86
2023-09-02T13:53:06.510Z,20.81
2023-09-02T13:56:09.501Z,20.78
2023-09-02T13:59:03.456Z,20.74
2023-09-02T14:07:50.771Z,20.68
2023-09-02T14:10:57.233Z,20.66
2023-09-02T14:13:23.909Z,20.69
2023-09-02T14:15:53.616Z,20.71
2023-09-02T14:21:04.088Z,20.74
2023-09-02T14:23:34.135Z,20.91
2023-09-02T14:29:43.715Z,21.27
2023-09-02T14:32:33.757Z,21.44
2023-09-02T14:35:04.601Z,21.42
2023-09-02T14:37:33.272Z,21.25
2023-09-02T14:40:00.197Z,21.12
2023-09-02T14:46:16.004Z,20.90
2023-09-02T14:48:43.256Z,20.86
2023-09-02T14:51:10.152Z,20.81
2023-09-02T14:56:43.817Z,20.77
2023-09-02T14:59:14.967Z,20.91
2023-09-02T15:01:43.796Z,21.10
2023-09-02T15:04:11.447Z,21.22
2023-09-02T15:06:43.367Z,21.28
2023-09-02T15:09:10.812Z,21.33
2023-09-02T15:11:41.568Z,21.28
2023-09-02T15:14:09.187Z,21.23
2023-09-02T15:19:43.891Z,21.20
2023-09-02T15:22:13.243Z,21.12
2023-09-02T15:24:39.940Z,21.06
2023-09-02T15:27:06.687Z,21.02
2023-09-02T15:29:38.310Z,20.99
2023-09-02T15:32:05.173Z,21.00
2023-09-02T15:34:32.200Z,20.98
2023-09-02T15:36:59.237Z,20.97
2023-09-02T15:39:27.859Z,20.92
2023-09-02T15:44:34.935Z,20.85
2023-09-02T15:47:10.847Z,20.82
2023-09-02T15:49:37.473Z,20.86
2023-09-02T15:52:06.961Z,20.98
2023-09-02T15:54:35.810Z,21.09
2023-09-02T15:57:27.487Z,21.11
2023-09-02T15:59:54.362Z,21.19
2023-09-02T16:02:21.235Z,21.23
2023-09-02T16:04:48.993Z,21.23
2023-09-02T16:10:03.118Z,21.22
2023-09-02T16:12:29.794Z,21.19
2023-09-02T16:15:01.211Z,21.19
2023-09-02T16:17:29.867Z,21.18
2023-09-02T16:19:56.667Z,21.17
2023-09-02T16:22:23.741Z,21.12
2023-09-02T16:24:52.562Z,21.11
2023-09-02T16:27:19.303Z,21.07
2023-09-02T16:29:48.215Z,21.01
2023-09-02T16:32:15.856Z,20.93
2023-09-02T16:34:46.295Z,20.89
2023-09-02T16:37:16.349Z,20.85
2023-09-02T16:39:44.267Z,20.80
2023-09-02T16:42:13.572Z,20.75
2023-09-02T16:44:40.412Z,20.70
2023-09-02T16:47:07.124Z,20.67
2023-09-02T16:49:37.504Z,20.64
2023-09-02T16:52:07.185Z,20.61
2023-09-02T16:54:34.018Z,20.60
2023-09-02T16:57:01.312Z,20.56
2023-09-02T16:59:29.789Z,20.55
2023-09-02T17:01:57.286Z,20.52
2023-09-02T17:04:24.590Z,20.47
2023-09-02T17:06:51.602Z,20.46
2023-09-02T17:09:20.799Z,20.45
2023-09-02T17:11:48.535Z,20.42
2023-09-02T17:14:15.573Z,20.40
2023-09-02T17:16:47.129Z,20.36
2023-09-02T17:19:19.117Z,20.34
2023-09-02T17:21:46.961Z,20.29
2023-09-02T17:24:18.941Z,20.22
2023-09-02T17:26:45.923Z,20.15
2023-09-02T17:29:15.113Z,20.13
2023-09-02T17:31:41.970Z,20.10
2023-09-02T17:34:08.608Z,20.08
2023-09-02T17:36:36.375Z,20.04
2023-09-02T17:39:04.324Z,20.00
2023-09-02T17:41:30.970Z,19.98
2023-09-02T17:43:57.696Z,19.93
2023-09-02T17:46:24.362Z,19.90
2023-09-02T17:48:51.177Z,19.87
2023-09-02T17:51:17.949Z,19.81
2023-09-02T17:53:44.661Z,19.78
2023-09-02T17:56:12.331Z,19.74
2023-09-02T17:58:38.991Z,19.73
2023-09-02T18:01:05.696Z,19.63
2023-09-02T18:03:32.494Z,19.59
2023-09-02T18:06:02.729Z,19.55
2023-09-02T18:08:42.618Z,19.49
2023-09-02T18:11:15.941Z,19.45
2023-09-02T18:13:42.540Z,19.39
2023-09-02T18:16:09.242Z,19.33
2023-09-02T18:18:36.100Z,19.29
2023-09-02T18:21:02.734Z,19.28
2023-09-02T18:23:29.394Z,19.25
2023-09-02T18:25:56.163Z,19.21
2023-09-02T18:28:22.929Z,19.14
2023-09-02T18:33:53.645Z,19.04
2023-09-02T18:36:20.480Z,18.99
2023-09-02T18:38:48.172Z,18.93
2023-09-02T18:41:15.037Z,18.88
2023-09-02T18:43:41.655Z,18.84
2023-09-02T18:46:08.239Z,18.79
2023-09-02T18:48:34.876Z,18.74
2023-09-02T18:51:01.689Z,18.71
2023-09-02T18:53:28.342Z,18.65
2023-09-02T18:55:56.046Z,18.59
2023-09-02T18:58:22.749Z,18.54
2023-09-02T19:00:49.522Z,18.49
2023-09-02T19:03:16.169Z,18.46
2023-09-02T19:05:42.871Z,18.41
2023-09-02T19:08:09.526Z,18.36
2023-09-02T19:10:36.150Z,18.31
2023-09-02T19:13:02.974Z,18.28
2023-09-02T19:15:29.612Z,18.23
2023-09-02T19:17:56.290Z,18.21
2023-09-02T19:20:22.917Z,18.18
2023-09-02T19:22:49.505Z,18.13
2023-09-02T19:25:18.322Z,18.11
2023-09-02T19:27:46.000Z,18.05
2023-09-02T19:30:14.337Z,18.04
2023-09-02T19:32:41.383Z,18.01
2023-09-02T19:35:10.614Z,17.97
2023-09-02T19:37:45.726Z,17.93
2023-09-02T19:40:14.167Z,17.91
2023-09-02T19:42:41.996Z,17.86
2023-09-02T19:45:08.806Z,17.82
2023-09-02T19:47:35.633Z,17.81
2023-09-02T19:50:03.071Z,17.79
2023-09-02T19:52:31.042Z,17.75
2023-09-02T19:54:58.639Z,17.74
2023-09-02T19:57:25.670Z,17.72
2023-09-02T19:59:52.454Z,17.69
2023-09-02T20:02:19.856Z,17.64
2023-09-02T20:04:46.782Z,17.62
2023-09-02T20:07:14.517Z,17.61
2023-09-02T20:09:42.226Z,17.59
2023-09-02T20:12:08.846Z,17.56
2023-09-02T20:14:35.541Z,17.55
2023-09-02T20:17:02.507Z,17.53
2023-09-02T20:19:29.209Z,17.50
2023-09-02T20:21:55.912Z,17.49
2023-09-02T20:24:29.489Z,17.49
2023-09-02T20:26:56.687Z,17.45
2023-09-02T20:29:24.092Z,17.43
2023-09-02T20:31:51.868Z,17.40
2023-09-02T20:34:20.638Z,17.36
2023-09-02T20:36:47.834Z,17.33
2023-09-02T20:39:15.557Z,17.31
2023-09-02T20:41:42.219Z,17.30
2023-09-02T20:44:11.013Z,17.27
2023-09-02T20:46:39.293Z,17.26
2023-09-02T20:49:06.072Z,17.24
2023-09-02T20:51:33.130Z,17.24
2023-09-02T20:54:01.094Z,17.19
2023-09-02T20:56:30.471Z,17.19
2023-09-02T20:58:57.147Z,17.16
2023-09-02T21:01:23.767Z,17.13
2023-09-02T21:03:50.630Z,17.09
2023-09-02T21:06:17.242Z,17.09
2023-09-02T21:08:43.838Z,17.07
2023-09-02T21:11:13.507Z,17.03
2023-09-02T21:13:42.428Z,17.02
2023-09-02T21:16:14.137Z,16.98
2023-09-02T21:18:40.950Z,16.99
2023-09-02T21:21:07.785Z,17.00
2023-09-02T21:23:34.992Z,16.98
2023-09-02T21:26:10.237Z,16.96
2023-09-02T21:28:39.482Z,16.92
2023-09-02T21:31:07.175Z,16.88
2023-09-02T21:33:34.335Z,16.84
2023-09-02T21:36:01.423Z,16.82
2023-09-02T21:38:28.213Z,16.78
2023-09-02T21:41:05.554Z,16.76
2023-09-02T21:43:33.418Z,16.74
2023-09-02T21:46:03.517Z,16.71
2023-09-02T21:48:30.208Z,16.69
2023-09-02T21:51:07.381Z,16.67
2023-09-02T21:53:35.045Z,16.65
2023-09-02T21:56:01.921Z,16.64
2023-09-02T21:58:28.927Z,16.62
2023-09-02T22:01:03.722Z,16.58
2023-09-02T22:03:31.012Z,16.54
2023-09-02T22:06:07.050Z,16.53
2023-09-02T22:08:33.811Z,16.53
2023-09-02T22:11:00.735Z,16.51
2023-09-02T22:13:28.905Z,16.49
2023-09-02T22:15:56.883Z,16.48
2023-09-02T22:18:25.481Z,16.46
2023-09-02T22:20:53.734Z,16.45
2023-09-02T22:23:22.293Z,16.41
2023-09-02T22:25:50.643Z,16.37
2023-09-02T22:28:18.654Z,16.39
2023-09-02T22:30:45.465Z,16.36
2023-09-02T22:33:13.394Z,16.33
2023-09-02T22:35:40.125Z,16.32
2023-09-02T22:38:10.012Z,16.29
2023-09-02T22:40:36.983Z,16.25
2023-09-02T22:43:03.731Z,16.23
2023-09-02T22:45:30.314Z,16.21
2023-09-02T22:47:59.671Z,16.20
2023-09-02T22:50:26.586Z,16.18
2023-09-02T22:52:53.239Z,16.17
2023-09-02T22:55:21.246Z,16.15
2023-09-02T22:57:49.001Z,16.14
2023-09-02T23:00:15.881Z,16.11
2023-09-02T23:02:42.584Z,16.08
2023-09-02T23:05:09.988Z,16.06
2023-09-02T23:07:36.553Z,16.03
2023-09-02T23:10:03.203Z,16.02
2023-09-02T23:12:29.782Z,15.99
2023-09-02T23:14:56.314Z,15.97
2023-09-02T23:17:22.927Z,15.92
2023-09-02T23:19:55.797Z,15.85
2023-09-02T23:22:23.526Z,15.77
2023-09-02T23:24:50.341Z,15.75
2023-09-02T23:27:16.961Z,15.74
2023-09-02T23:29:43.691Z,15.73
2023-09-02T23:32:11.517Z,15.71
2023-09-02T23:34:38.322Z,15.68
2023-09-02T23:37:05.205Z,15.67
2023-09-02T23:39:31.853Z,15.61
2023-09-02T23:41:58.424Z,15.57
2023-09-02T23:44:24.989Z,15.59
2023-09-02T23:46:51.538Z,15.57
2023-09-02T23:49:18.068Z,15.56
2023-09-02T23:51:44.697Z,15.55
2023-09-02T23:54:11.246Z,15.53
2023-09-02T23:56:38.339Z,15.50
2023-09-02T23:59:04.913Z,15.47
